sensor_id;sensor_type;location;lat;lon;timestamp;pressure;altitude;pressure_sealevel;temperature;humidity
48027;BME280;50714;49.208;5.364;2023-02-10T16:10:22;101589.81;;;4.52;65.51
48027;BME280;50714;49.208;5.364;2023-02-10T16:20:25;101584.88;;;4.59;65.81
48027;BME280;50714;49.208;5.364;2023-02-10T16:30:27;101575.22;;;4.45;65.94
48027;BME280;50714;49.208;5.364;2023-02-10T16:40:33;101576.00;;;4.34;65.94
48027;BME280;50714;49.208;5.364;2023-02-10T16:50:35;101572.63;;;4.20;66.06
48027;BME280;50714;49.208;5.364;2023-02-10T17:00:37;101577.34;;;4.03;65.98
48027;BME280;50714;49.208;5.364;2023-02-10T17:10:37;101580.81;;;3.80;66.33
48027;BME280;50714;49.208;5.364;2023-02-10T17:20:38;101595.19;;;3.54;67.47
48027;BME280;50714;49.208;5.364;2023-02-10T17:30:38;101606.16;;;3.24;67.30
48027;BME280;50714;49.208;5.364;2023-02-10T17:40:44;101597.75;;;2.90;67.92
48027;BME280;50714;49.208;5.364;2023-02-10T17:50:44;101610.00;;;2.80;69.45
48027;BME280;50714;49.208;5.364;2023-02-10T18:00:45;101608.13;;;2.68;69.86
48027;BME280;50714;49.208;5.364;2023-02-10T18:10:46;101605.75;;;2.36;70.48
48027;BME280;50714;49.208;5.364;2023-02-10T18:20:47;101621.50;;;2.13;71.34
48027;BME280;50714;49.208;5.364;2023-02-10T18:30:48;101625.72;;;2.02;71.43
48027;BME280;50714;49.208;5.364;2023-02-10T18:40:48;101632.56;;;2.07;70.61
48027;BME280;50714;49.208;5.364;2023-02-10T18:50:52;101618.53;;;2.17;70.62
48027;BME280;50714;49.208;5.364;2023-02-10T19:00:52;101626.25;;;2.22;71.16
48027;BME280;50714;49.208;5.364;2023-02-10T19:10:58;101623.56;;;2.36;70.94
48027;BME280;50714;49.208;5.364;2023-02-10T19:20:59;101630.09;;;2.45;70.77
48027;BME280;50714;49.208;5.364;2023-02-10T19:31:04;101630.47;;;2.38;71.49
48027;BME280;50714;49.208;5.364;2023-02-10T19:41:07;101638.75;;;2.48;71.19
48027;BME280;50714;49.208;5.364;2023-02-10T19:51:10;101638.47;;;2.53;71.76
48027;BME280;50714;49.208;5.364;2023-02-10T20:01:13;101633.31;;;2.50;71.35
48027;BME280;50714;49.208;5.364;2023-02-10T20:11:16;101643.59;;;2.56;72.35
48027;BME280;50714;49.208;5.364;2023-02-10T20:21:17;101641.38;;;2.35;72.18
48027;BME280;50714;49.208;5.364;2023-02-10T20:31:17;101634.00;;;2.53;72.89
48027;BME280;50714;49.208;5.364;2023-02-10T20:41:19;101623.88;;;2.58;72.88
48027;BME280;50714;49.208;5.364;2023-02-10T20:51:20;101621.34;;;2.69;72.54
48027;BME280;50714;49.208;5.364;2023-02-10T21:01:21;101606.97;;;2.72;72.39
48027;BME280;50714;49.208;5.364;2023-02-10T21:11:24;101610.19;;;2.77;72.93
48027;BME280;50714;49.208;5.364;2023-02-10T21:21:25;101598.28;;;2.83;72.37
48027;BME280;50714;49.208;5.364;2023-02-10T21:31:26;101581.19;;;2.85;72.51
48027;BME280;50714;49.208;5.364;2023-02-10T21:41:27;101581.72;;;2.78;72.43
48027;BME280;50714;49.208;5.364;2023-02-10T21:51:48;101580.97;;;2.76;72.80
48027;BME280;50714;49.208;5.364;2023-02-10T22:01:49;101572.97;;;2.76;72.55
48027;BME280;50714;49.208;5.364;2023-02-10T22:11:49;101551.69;;;2.61;73.00
48027;BME280;50714;49.208;5.364;2023-02-10T22:21:50;101546.13;;;2.52;72.32
48027;BME280;50714;49.208;5.364;2023-02-10T22:31:50;101560.25;;;2.39;72.33
48027;BME280;50714;49.208;5.364;2023-02-10T22:41:52;101551.84;;;2.19;72.63
48027;BME280;50714;49.208;5.364;2023-02-10T22:51:52;101563.41;;;2.05;73.16
48027;BME280;50714;49.208;5.364;2023-02-10T23:01:52;101568.97;;;1.88;74.09
48027;BME280;50714;49.208;5.364;2023-02-10T23:11:53;101561.34;;;1.82;74.25
48027;BME280;50714;49.208;5.364;2023-02-10T23:21:54;101578.66;;;1.75;74.67
48027;BME280;50714;49.208;5.364;2023-02-10T23:31:56;101573.25;;;1.62;74.68
48027;BME280;50714;49.208;5.364;2023-02-10T23:41:57;101563.84;;;1.56;75.41
48027;BME280;50714;49.208;5.364;2023-02-10T23:51:57;101567.34;;;1.57;75.62
